sensor_id;sensor_type;location;lat;lon;timestamp;pressure;altitude;pressure_sealevel;temperature;humidity
28354;BME280;15603;50.878;8.036;2024-03-23T00:54:10;143473.34;;;0.87;100.00
28354;BME280;15603;50.878;8.036;2024-03-23T00:56:37;143490.25;;;0.94;100.00
28354;BME280;15603;50.878;8.036;2024-03-23T00:59:03;143439.53;;;0.73;100.00
28354;BME280;15603;50.878;8.036;2024-03-23T01:01:29;143335.78;;;0.29;100.00
28354;BME280;15603;50.878;8.036;2024-03-23T01:03:55;143408.16;;;0.59;100.00
28354;BME280;15603;50.878;8.036;2024-03-23T01:06:21;143368.38;;;0.43;100.00
28354;BME280;15603;50.878;8.036;2024-03-23T01:08:47;143359.94;;;0.39;100.00
28354;BME280;15603;50.878;8.036;2024-03-23T01:11:13;143391.31;;;0.52;100.00
28354;BME280;15603;50.878;8.036;2024-03-23T01:13:39;143364.75;;;0.41;100.00
28354;BME280;15603;50.878;8.036;2024-03-23T01:16:06;143410.59;;;0.61;100.00
28354;BME280;15603;50.878;8.036;2024-03-23T01:18:32;143334.59;;;0.28;100.00
28354;BME280;15603;50.878;8.036;2024-03-23T01:20:58;143408.16;;;0.59;100.00
28354;BME280;15603;50.878;8.036;2024-03-23T01:23:25;143396.13;;;0.54;100.00
28354;BME280;15603;50.878;8.036;2024-03-23T01:25:52;143359.94;;;0.39;100.00
28354;BME280;15603;50.878;8.036;2024-03-23T01:28:20;143282.75;;;0.06;100.00
28354;BME280;15603;50.878;8.036;2024-03-23T01:30:46;143334.59;;;0.28;100.00
28354;BME280;15603;50.878;8.036;2024-03-23T01:33:12;143318.94;;;0.22;100.00
28354;BME280;15603;50.878;8.036;2024-03-23T01:35:38;143227.25;;;-0.17;100.00
28354;BME280;15603;50.878;8.036;2024-03-23T01:38:04;143150.09;;;-0.50;100.00
28354;BME280;15603;50.878;8.036;2024-03-23T01:40:31;143038.06;;;-0.98;100.00
28354;BME280;15603;50.878;8.036;2024-03-23T01:43:02;143138.09;;;-0.55;100.00
28354;BME280;15603;50.878;8.036;2024-03-23T01:45:30;143010.31;;;-1.10;100.00
28354;BME280;15603;50.878;8.036;2024-03-23T01:47:56;143060.97;;;-0.88;100.00
28354;BME280;15603;50.878;8.036;2024-03-23T01:50:23;142952.53;;;-1.34;100.00
28354;BME280;15603;50.878;8.036;2024-03-23T01:52:50;143041.66;;;-0.96;100.00
28354;BME280;15603;50.878;8.036;2024-03-23T01:55:16;143015.19;;;-1.08;100.00
28354;BME280;15603;50.878;8.036;2024-03-23T01:57:43;143024.81;;;-1.04;100.00
28354;BME280;15603;50.878;8.036;2024-03-23T02:00:09;143011.56;;;-1.09;100.00
28354;BME280;15603;50.878;8.036;2024-03-23T02:02:45;142964.53;;;-1.29;100.00
28354;BME280;15603;50.878;8.036;2024-03-23T02:05:12;142969.34;;;-1.27;100.00
28354;BME280;15603;50.878;8.036;2024-03-23T02:07:42;142951.28;;;-1.35;100.00
28354;BME280;15603;50.878;8.036;2024-03-23T02:10:10;142851.34;;;-1.78;100.00
28354;BME280;15603;50.878;8.036;2024-03-23T02:12:37;142856.16;;;-1.75;100.00
28354;BME280;15603;50.878;8.036;2024-03-23T02:15:03;142917.59;;;-1.49;100.00
28354;BME280;15603;50.878;8.036;2024-03-23T02:17:31;142924.84;;;-1.46;100.00
28354;BME280;15603;50.878;8.036;2024-03-23T02:19:58;142940.47;;;-1.40;100.00
28354;BME280;15603;50.878;8.036;2024-03-23T02:22:24;142954.91;;;-1.33;100.00
28354;BME280;15603;50.878;8.036;2024-03-23T02:24:50;142934.47;;;-1.42;100.00
28354;BME280;15603;50.878;8.036;2024-03-23T02:27:16;142913.97;;;-1.51;100.00
28354;BME280;15603;50.878;8.036;2024-03-23T02:29:42;142892.28;;;-1.60;100.00
28354;BME280;15603;50.878;8.036;2024-03-23T02:32:08;142897.09;;;-1.58;100.00
28354;BME280;15603;50.878;8.036;2024-03-23T02:34:35;142941.66;;;-1.39;100.00
28354;BME280;15603;50.878;8.036;2024-03-23T02:37:02;142916.41;;;-1.50;100.00
28354;BME280;15603;50.878;8.036;2024-03-23T02:39:28;142926.03;;;-1.46;100.00
28354;BME280;15603;50.878;8.036;2024-03-23T02:41:55;142885.06;;;-1.63;100.00
28354;BME280;15603;50.878;8.036;2024-03-23T02:44:21;142868.22;;;-1.70;100.00
28354;BME280;15603;50.878;8.036;2024-03-23T02:46:48;142938.03;;;-1.41;100.00
28354;BME280;15603;50.878;8.036;2024-03-23T02:49:15;142823.66;;;-1.89;100.00
28354;BME280;15603;50.878;8.036;2024-03-23T02:51:41;142911.59;;;-1.52;100.00
28354;BME280;15603;50.878;8.036;2024-03-23T02:54:07;142926.03;;;-1.46;100.00
28354;BME280;15603;50.878;8.036;2024-03-23T02:56:34;142856.16;;;-1.75;100.00
28354;BME280;15603;50.878;8.036;2024-03-23T02:59:00;142863.41;;;-1.72;100.00
28354;BME280;15603;50.878;8.036;2024-03-23T03:01:26;142901.91;;;-1.56;100.00
28354;BME280;15603;50.878;8.036;2024-03-23T03:03:52;142887.47;;;-1.62;100.00
28354;BME280;15603;50.878;8.036;2024-03-23T03:06:27;142876.66;;;-1.67;100.00
28354;BME280;15603;50.878;8.036;2024-03-23T03:08:54;142906.75;;;-1.54;100.00
28354;BME280;15603;50.878;8.036;2024-03-23T03:11:21;142828.47;;;-1.87;100.00
28354;BME280;15603;50.878;8.036;2024-03-23T03:13:47;142832.09;;;-1.86;100.00
28354;BME280;15603;50.878;8.036;2024-03-23T03:16:13;142873.03;;;-1.68;100.00
28354;BME280;15603;50.878;8.036;2024-03-23T03:18:40;142887.47;;;-1.62;100.00
28354;BME280;15603;50.878;8.036;2024-03-23T03:21:07;142915.16;;;-1.50;100.00
28354;BME280;15603;50.878;8.036;2024-03-23T03:23:37;142891.09;;;-1.61;100.00
28354;BME280;15603;50.878;8.036;2024-03-23T03:26:06;142716.50;;;-2.35;100.00
28354;BME280;15603;50.878;8.036;2024-03-23T03:28:33;142894.72;;;-1.59;100.00
28354;BME280;15603;50.878;8.036;2024-03-23T03:31:00;142791.16;;;-2.03;100.00
28354;BME280;15603;50.878;8.036;2024-03-23T03:33:27;142743.00;;;-2.24;100.00
28354;BME280;15603;50.878;8.036;2024-03-23T03:35:55;142799.59;;;-2.00;100.00
28354;BME280;15603;50.878;8.036;2024-03-23T03:38:21;142870.63;;;-1.69;100.00
28354;BME280;15603;50.878;8.036;2024-03-23T03:40:48;142860.97;;;-1.73;100.00
28354;BME280;15603;50.878;8.036;2024-03-23T03:43:14;142628.69;;;-2.72;100.00
28354;BME280;15603;50.878;8.036;2024-03-23T03:45:40;142783.91;;;-2.06;100.00
28354;BME280;15603;50.878;8.036;2024-03-23T03:48:07;142637.13;;;-2.69;100.00
28354;BME280;15603;50.878;8.036;2024-03-23T03:50:33;142723.75;;;-2.32;100.00
28354;BME280;15603;50.878;8.036;2024-03-23T03:52:59;142705.69;;;-2.40;100.00
28354;BME280;15603;50.878;8.036;2024-03-23T03:55:26;142718.94;;;-2.34;100.00
28354;BME280;15603;50.878;8.036;2024-03-23T03:57:52;142739.38;;;-2.25;100.00
28354;BME280;15603;50.878;8.036;2024-03-23T04:00:18;142699.69;;;-2.42;100.00
28354;BME280;15603;50.878;8.036;2024-03-23T04:02:44;142785.16;;;-2.06;100.00
28354;BME280;15603;50.878;8.036;2024-03-23T04:05:11;142667.16;;;-2.56;100.00
28354;BME280;15603;50.878;8.036;2024-03-23T04:07:37;142655.16;;;-2.61;100.00
28354;BME280;15603;50.878;8.036;2024-03-23T04:10:03;142610.63;;;-2.80;100.00
28354;BME280;15603;50.878;8.036;2024-03-23T04:12:34;142684.03;;;-2.49;100.00
28354;BME280;15603;50.878;8.036;2024-03-23T04:15:00;142711.69;;;-2.37;100.00
28354;BME280;15603;50.878;8.036;2024-03-23T04:17:30;142672.03;;;-2.54;100.00
28354;BME280;15603;50.878;8.036;2024-03-23T04:20:01;142562.50;;;-3.01;100.00
28354;BME280;15603;50.878;8.036;2024-03-23T04:22:29;142404.97;;;-3.68;100.00
28354;BME280;15603;50.878;8.036;2024-03-23T04:24:58;142551.69;;;-3.05;100.00
28354;BME280;15603;50.878;8.036;2024-03-23T04:27:25;142560.13;;;-3.02;100.00
28354;BME280;15603;50.878;8.036;2024-03-23T04:29:52;142563.75;;;-3.00;100.00
28354;BME280;15603;50.878;8.036;2024-03-23T04:32:21;142520.41;;;-3.19;100.00
28354;BME280;15603;50.878;8.036;2024-03-23T04:34:47;142370.13;;;-3.83;100.00
28354;BME280;15603;50.878;8.036;2024-03-23T04:37:13;142413.38;;;-3.64;100.00
28354;BME280;15603;50.878;8.036;2024-03-23T04:39:40;142504.75;;;-3.25;100.00
28354;BME280;15603;50.878;8.036;2024-03-23T04:42:07;142560.13;;;-3.02;100.00
28354;BME280;15603;50.878;8.036;2024-03-23T04:44:33;142536.03;;;-3.12;100.00
28354;BME280;15603;50.878;8.036;2024-03-23T04:47:00;142429.03;;;-3.58;100.00
28354;BME280;15603;50.878;8.036;2024-03-23T04:49:26;142512.00;;;-3.22;100.00
28354;BME280;15603;50.878;8.036;2024-03-23T04:51:52;142509.63;;;-3.23;100.00
28354;BME280;15603;50.878;8.036;2024-03-23T04:54:19;142435.03;;;-3.55;100.00
28354;BME280;15603;50.878;8.036;2024-03-23T04:56:49;142532.47;;;-3.13;100.00
28354;BME280;15603;50.878;8.036;2024-03-23T04:59:15;142449.47;;;-3.49;100.00
28354;BME280;15603;50.878;8.036;2024-03-23T05:01:41;142466.31;;;-3.42;100.00
28354;BME280;15603;50.878;8.036;2024-03-23T05:04:09;142471.13;;;-3.40;100.00
28354;BME280;15603;50.878;8.036;2024-03-23T05:06:35;142463.88;;;-3.43;100.00
28354;BME280;15603;50.878;8.036;2024-03-23T05:09:02;142407.41;;;-3.67;100.00
28354;BME280;15603;50.878;8.036;2024-03-23T05:11:38;142459.06;;;-3.45;100.00
28354;BME280;15603;50.878;8.036;2024-03-23T05:14:05;142401.41;;;-3.69;100.00
28354;BME280;15603;50.878;8.036;2024-03-23T05:16:31;142411.00;;;-3.65;100.00
28354;BME280;15603;50.878;8.036;2024-03-23T05:18:57;142389.34;;;-3.75;100.00
28354;BME280;15603;50.878;8.036;2024-03-23T05:21:24;142408.59;;;-3.66;100.00
28354;BME280;15603;50.878;8.036;2024-03-23T05:23:50;142461.50;;;-3.44;100.00
28354;BME280;15603;50.878;8.036;2024-03-23T05:26:17;142413.38;;;-3.64;100.00
28354;BME280;15603;50.878;8.036;2024-03-23T05:28:43;142354.50;;;-3.89;100.00
28354;BME280;15603;50.878;8.036;2024-03-23T05:31:09;142442.28;;;-3.52;100.00
28354;BME280;15603;50.878;8.036;2024-03-23T05:33:36;142396.53;;;-3.71;100.00
28354;BME280;15603;50.878;8.036;2024-03-23T05:36:06;142406.19;;;-3.67;100.00
28354;BME280;15603;50.878;8.036;2024-03-23T05:38:37;142395.34;;;-3.72;100.00
28354;BME280;15603;50.878;8.036;2024-03-23T05:41:03;142413.38;;;-3.64;100.00
28354;BME280;15603;50.878;8.036;2024-03-23T05:43:29;142312.44;;;-4.07;100.00
28354;BME280;15603;50.878;8.036;2024-03-23T05:45:55;142435.03;;;-3.55;100.00
28354;BME280;15603;50.878;8.036;2024-03-23T05:48:22;142408.59;;;-3.66;100.00
28354;BME280;15603;50.878;8.036;2024-03-23T05:50:49;142371.31;;;-3.82;100.00
28354;BME280;15603;50.878;8.036;2024-03-23T05:53:16;142281.19;;;-4.21;100.00
28354;BME280;15603;50.878;8.036;2024-03-23T05:55:43;142253.56;;;-4.32;100.00
28354;BME280;15603;50.878;8.036;2024-03-23T05:58:10;142329.28;;;-4.00;100.00
28354;BME280;15603;50.878;8.036;2024-03-23T06:00:36;142322.03;;;-4.03;100.00
28354;BME280;15603;50.878;8.036;2024-03-23T06:03:02;142451.88;;;-3.48;100.00
28354;BME280;15603;50.878;8.036;2024-03-23T06:05:28;142358.09;;;-3.88;100.00
28354;BME280;15603;50.878;8.036;2024-03-23T06:07:55;142423.00;;;-3.60;100.00
28354;BME280;15603;50.878;8.036;2024-03-23T06:10:22;142394.16;;;-3.72;100.00
28354;BME280;15603;50.878;8.036;2024-03-23T06:12:49;142433.84;;;-3.56;100.00
28354;BME280;15603;50.878;8.036;2024-03-23T06:15:19;142447.06;;;-3.50;100.00
28354;BME280;15603;50.878;8.036;2024-03-23T06:17:45;142466.31;;;-3.42;100.00
28354;BME280;15603;50.878;8.036;2024-03-23T06:20:12;142454.25;;;-3.47;100.00
28354;BME280;15603;50.878;8.036;2024-03-23T06:22:38;142423.00;;;-3.60;100.00
28354;BME280;15603;50.878;8.036;2024-03-23T06:25:05;142408.59;;;-3.66;100.00
28354;BME280;15603;50.878;8.036;2024-03-23T06:27:32;142466.31;;;-3.42;100.00
28354;BME280;15603;50.878;8.036;2024-03-23T06:29:59;142364.09;;;-3.85;100.00
28354;BME280;15603;50.878;8.036;2024-03-23T06:32:25;142462.69;;;-3.43;100.00
28354;BME280;15603;50.878;8.036;2024-03-23T06:34:51;142372.50;;;-3.82;100.00
28354;BME280;15603;50.878;8.036;2024-03-23T06:37:17;142473.53;;;-3.39;100.00
28354;BME280;15603;50.878;8.036;2024-03-23T06:39:46;142418.19;;;-3.62;100.00
28354;BME280;15603;50.878;8.036;2024-03-23T06:42:12;142460.31;;;-3.44;100.00
28354;BME280;15603;50.878;8.036;2024-03-23T06:44:39;142424.22;;;-3.60;100.00
28354;BME280;15603;50.878;8.036;2024-03-23T06:47:06;142487.97;;;-3.32;100.00
28354;BME280;15603;50.878;8.036;2024-03-23T06:49:32;142499.94;;;-3.27;100.00
28354;BME280;15603;50.878;8.036;2024-03-23T06:51:58;142457.88;;;-3.45;100.00
28354;BME280;15603;50.878;8.036;2024-03-23T06:54:25;142533.66;;;-3.13;100.00
28354;BME280;15603;50.878;8.036;2024-03-23T06:56:51;142502.38;;;-3.26;100.00
28354;BME280;15603;50.878;8.036;2024-03-23T06:59:17;142549.25;;;-3.06;100.00
28354;BME280;15603;50.878;8.036;2024-03-23T07:01:43;142463.88;;;-3.43;100.00
28354;BME280;15603;50.878;8.036;2024-03-23T07:04:10;142524.03;;;-3.17;100.00
28354;BME280;15603;50.878;8.036;2024-03-23T07:06:45;142608.22;;;-2.81;100.00
28354;BME280;15603;50.878;8.036;2024-03-23T07:09:11;142386.94;;;-3.76;100.00
28354;BME280;15603;50.878;8.036;2024-03-23T07:11:38;142550.50;;;-3.06;100.00
28354;BME280;15603;50.878;8.036;2024-03-23T07:14:04;142483.16;;;-3.34;100.00
28354;BME280;15603;50.878;8.036;2024-03-23T07:16:30;142373.72;;;-3.81;100.00
28354;BME280;15603;50.878;8.036;2024-03-23T07:18:56;142480.72;;;-3.36;100.00
28354;BME280;15603;50.878;8.036;2024-03-23T07:21:23;142468.69;;;-3.41;100.00
28354;BME280;15603;50.878;8.036;2024-03-23T07:23:49;142513.19;;;-3.22;100.00
28354;BME280;15603;50.878;8.036;2024-03-23T07:26:15;142379.75;;;-3.79;100.00
28354;BME280;15603;50.878;8.036;2024-03-23T07:28:43;142519.22;;;-3.19;100.00
28354;BME280;15603;50.878;8.036;2024-03-23T07:31:12;142437.47;;;-3.54;100.00
28354;BME280;15603;50.878;8.036;2024-03-23T07:33:44;142550.50;;;-3.06;100.00
28354;BME280;15603;50.878;8.036;2024-03-23T07:36:10;142516.81;;;-3.20;100.00
28354;BME280;15603;50.878;8.036;2024-03-23T07:38:37;142552.88;;;-3.05;100.00
28354;BME280;15603;50.878;8.036;2024-03-23T07:41:04;142568.53;;;-2.98;100.00
28354;BME280;15603;50.878;8.036;2024-03-23T07:43:30;142548.06;;;-3.07;100.00
28354;BME280;15603;50.878;8.036;2024-03-23T07:45:57;142570.94;;;-2.97;100.00
28354;BME280;15603;50.878;8.036;2024-03-23T07:48:23;142586.59;;;-2.90;100.00
28354;BME280;15603;50.878;8.036;2024-03-23T07:51:07;142473.53;;;-3.39;100.00
28354;BME280;15603;50.878;8.036;2024-03-23T07:53:35;142492.75;;;-3.30;100.00
28354;BME280;15603;50.878;8.036;2024-03-23T07:56:04;142605.81;;;-2.82;100.00
28354;BME280;15603;50.878;8.036;2024-03-23T07:58:31;142662.34;;;-2.58;100.00
28354;BME280;15603;50.878;8.036;2024-03-23T08:01:07;142703.25;;;-2.41;100.00
28354;BME280;15603;50.878;8.036;2024-03-23T08:03:37;142610.63;;;-2.80;100.00
28354;BME280;15603;50.878;8.036;2024-03-23T08:06:11;142755.03;;;-2.19;100.00
28354;BME280;15603;50.878;8.036;2024-03-23T08:08:38;142711.69;;;-2.37;100.00
28354;BME280;15603;50.878;8.036;2024-03-23T08:11:06;142432.59;;;-3.56;100.00
28354;BME280;15603;50.878;8.036;2024-03-23T08:13:33;142548.06;;;-3.07;100.00
28354;BME280;15603;50.878;8.036;2024-03-23T08:16:00;142653.97;;;-2.62;100.00
28354;BME280;15603;50.878;8.036;2024-03-23T08:18:27;142739.38;;;-2.25;100.00
28354;BME280;15603;50.878;8.036;2024-03-23T08:23:30;142601.00;;;-2.84;100.00
28354;BME280;15603;50.878;8.036;2024-03-23T08:25:58;142793.53;;;-2.02;100.00
28354;BME280;15603;50.878;8.036;2024-03-23T08:28:25;142856.16;;;-1.75;100.00
28354;BME280;15603;50.878;8.036;2024-03-23T08:30:52;142877.84;;;-1.66;100.00
28354;BME280;15603;50.878;8.036;2024-03-23T08:33:19;142682.84;;;-2.49;100.00
28354;BME280;15603;50.878;8.036;2024-03-23T08:35:58;142909.16;;;-1.53;100.00
28354;BME280;15603;50.878;8.036;2024-03-23T08:38:25;142817.66;;;-1.92;100.00
28354;BME280;15603;50.878;8.036;2024-03-23T08:41:01;142940.47;;;-1.40;100.00
28354;BME280;15603;50.878;8.036;2024-03-23T08:43:29;142930.84;;;-1.44;100.00
28354;BME280;15603;50.878;8.036;2024-03-23T08:48:39;142926.03;;;-1.46;99.15
28354;BME280;15603;50.878;8.036;2024-03-23T08:51:07;143000.69;;;-1.14;100.00
28354;BME280;15603;50.878;8.036;2024-03-23T08:53:35;143009.13;;;-1.10;100.00
28354;BME280;15603;50.878;8.036;2024-03-23T08:56:02;142887.47;;;-1.62;98.64
28354;BME280;15603;50.878;8.036;2024-03-23T08:58:30;142934.47;;;-1.42;100.00
28354;BME280;15603;50.878;8.036;2024-03-23T09:01:02;142926.03;;;-1.46;100.00
28354;BME280;15603;50.878;8.036;2024-03-23T09:03:29;142923.59;;;-1.47;99.39
28354;BME280;15603;50.878;8.036;2024-03-23T09:05:56;142877.84;;;-1.66;100.00
28354;BME280;15603;50.878;8.036;2024-03-23T09:08:24;143009.13;;;-1.10;100.00
28354;BME280;15603;50.878;8.036;2024-03-23T09:10:52;143123.63;;;-0.62;97.92
28354;BME280;15603;50.878;8.036;2024-03-23T09:13:18;143116.38;;;-0.65;91.43
28354;BME280;15603;50.878;8.036;2024-03-23T09:15:49;143066.97;;;-0.86;92.90
28354;BME280;15603;50.878;8.036;2024-03-23T09:18:16;143063.34;;;-0.87;94.31
28354;BME280;15603;50.878;8.036;2024-03-23T09:20:43;143087.47;;;-0.77;94.22
28354;BME280;15603;50.878;8.036;2024-03-23T09:23:09;143072.97;;;-0.83;91.87
28354;BME280;15603;50.878;8.036;2024-03-23T09:25:37;143127.22;;;-0.60;91.57
28354;BME280;15603;50.878;8.036;2024-03-23T09:28:03;143153.72;;;-0.49;95.81
28354;BME280;15603;50.878;8.036;2024-03-23T09:30:30;143236.94;;;-0.13;93.03
28354;BME280;15603;50.878;8.036;2024-03-23T09:32:56;143218.84;;;-0.21;90.54
28354;BME280;15603;50.878;8.036;2024-03-23T09:35:23;143239.31;;;-0.12;85.59
28354;BME280;15603;50.878;8.036;2024-03-23T09:37:49;143248.97;;;-0.08;90.91
28354;BME280;15603;50.878;8.036;2024-03-23T09:40:15;143322.50;;;0.23;85.38
28354;BME280;15603;50.878;8.036;2024-03-23T09:42:42;143314.09;;;0.19;88.29
28354;BME280;15603;50.878;8.036;2024-03-23T09:45:27;143314.09;;;0.19;81.65
28354;BME280;15603;50.878;8.036;2024-03-23T09:47:54;143164.59;;;-0.44;84.21
28354;BME280;15603;50.878;8.036;2024-03-23T09:50:22;143203.16;;;-0.28;84.04
28354;BME280;15603;50.878;8.036;2024-03-23T09:52:49;143148.91;;;-0.51;81.90
28354;BME280;15603;50.878;8.036;2024-03-23T09:55:15;143071.78;;;-0.84;81.16
28354;BME280;15603;50.878;8.036;2024-03-23T09:57:42;143120.00;;;-0.63;88.86
28354;BME280;15603;50.878;8.036;2024-03-23T10:00:09;143051.31;;;-0.92;89.26
28354;BME280;15603;50.878;8.036;2024-03-23T10:02:35;143027.19;;;-1.03;87.83
28354;BME280;15603;50.878;8.036;2024-03-23T10:05:01;142853.78;;;-1.76;91.95
28354;BME280;15603;50.878;8.036;2024-03-23T10:07:27;142673.22;;;-2.53;98.41
28354;BME280;15603;50.878;8.036;2024-03-23T10:09:57;142773.09;;;-2.11;99.58
28354;BME280;15603;50.878;8.036;2024-03-23T10:12:23;142708.13;;;-2.39;100.00
28354;BME280;15603;50.878;8.036;2024-03-23T10:14:50;142853.78;;;-1.76;100.00
28354;BME280;15603;50.878;8.036;2024-03-23T10:17:20;142921.22;;;-1.48;99.36
28354;BME280;15603;50.878;8.036;2024-03-23T10:19:52;142904.34;;;-1.55;99.76
28354;BME280;15603;50.878;8.036;2024-03-23T10:22:23;142972.97;;;-1.26;100.00
28354;BME280;15603;50.878;8.036;2024-03-23T10:24:50;143154.91;;;-0.48;99.79
28354;BME280;15603;50.878;8.036;2024-03-23T10:27:18;143282.75;;;0.06;96.98
28354;BME280;15603;50.878;8.036;2024-03-23T10:29:46;143306.84;;;0.16;87.59
28354;BME280;15603;50.878;8.036;2024-03-23T10:32:13;143264.66;;;-0.02;85.87
28354;BME280;15603;50.878;8.036;2024-03-23T10:34:40;143269.47;;;0.01;86.64
28354;BME280;15603;50.878;8.036;2024-03-23T10:37:07;143268.28;;;0.00;87.36
28354;BME280;15603;50.878;8.036;2024-03-23T10:39:37;143164.59;;;-0.44;86.48
28354;BME280;15603;50.878;8.036;2024-03-23T10:42:08;143122.38;;;-0.62;85.93
28354;BME280;15603;50.878;8.036;2024-03-23T10:44:37;142879.03;;;-1.66;91.56
28354;BME280;15603;50.878;8.036;2024-03-23T10:47:05;142966.97;;;-1.28;87.51
28354;BME280;15603;50.878;8.036;2024-03-23T10:49:32;142886.28;;;-1.63;86.67
28354;BME280;15603;50.878;8.036;2024-03-23T10:52:00;142788.72;;;-2.04;89.10
28354;BME280;15603;50.878;8.036;2024-03-23T10:54:28;142810.41;;;-1.95;92.91
28354;BME280;15603;50.878;8.036;2024-03-23T10:57:20;142805.59;;;-1.97;94.32
28354;BME280;15603;50.878;8.036;2024-03-23T10:59:48;142816.47;;;-1.92;95.75
28354;BME280;15603;50.878;8.036;2024-03-23T11:02:21;142733.38;;;-2.28;92.32
28354;BME280;15603;50.878;8.036;2024-03-23T11:04:48;142706.88;;;-2.39;97.48
28354;BME280;15603;50.878;8.036;2024-03-23T11:09:50;142976.59;;;-1.24;95.25
28354;BME280;15603;50.878;8.036;2024-03-23T11:14:48;143064.53;;;-0.87;91.23
28354;BME280;15603;50.878;8.036;2024-03-23T11:17:18;143179.06;;;-0.38;90.88
28354;BME280;15603;50.878;8.036;2024-03-23T11:20:01;143116.38;;;-0.65;88.21
28354;BME280;15603;50.878;8.036;2024-03-23T11:25:18;143234.50;;;-0.14;87.98
28354;BME280;15603;50.878;8.036;2024-03-23T11:27:48;143329.75;;;0.26;89.10
28354;BME280;15603;50.878;8.036;2024-03-23T11:30:18;143352.69;;;0.36;85.95
28354;BME280;15603;50.878;8.036;2024-03-23T11:32:46;143261.03;;;-0.03;89.52
28354;BME280;15603;50.878;8.036;2024-03-23T11:35:35;143232.13;;;-0.15;85.47
28354;BME280;15603;50.878;8.036;2024-03-23T11:38:04;143109.13;;;-0.68;84.38
28354;BME280;15603;50.878;8.036;2024-03-23T11:40:32;143072.97;;;-0.83;89.15
28354;BME280;15603;50.878;8.036;2024-03-23T11:43:00;142959.72;;;-1.31;88.33
28354;BME280;15603;50.878;8.036;2024-03-23T11:45:27;142688.84;;;-2.47;97.88
28354;BME280;15603;50.878;8.036;2024-03-23T11:48:11;142444.66;;;-3.51;100.00
28354;BME280;15603;50.878;8.036;2024-03-23T11:50:40;142483.16;;;-3.34;100.00
28354;BME280;15603;50.878;8.036;2024-03-23T11:55:55;142349.69;;;-3.91;100.00
28354;BME280;15603;50.878;8.036;2024-03-23T11:58:23;142338.88;;;-3.96;100.00
28354;BME280;15603;50.878;8.036;2024-03-23T12:00:55;142382.13;;;-3.78;100.00
28354;BME280;15603;50.878;8.036;2024-03-23T12:03:21;142445.84;;;-3.50;100.00
28354;BME280;15603;50.878;8.036;2024-03-23T12:05:52;142602.22;;;-2.84;100.00
28354;BME280;15603;50.878;8.036;2024-03-23T12:13:33;142812.84;;;-1.94;100.00
28354;BME280;15603;50.878;8.036;2024-03-23T12:16:19;142743.00;;;-2.24;100.00
28354;BME280;15603;50.878;8.036;2024-03-23T12:18:48;142827.28;;;-1.88;100.00
28354;BME280;15603;50.878;8.036;2024-03-23T12:21:17;142823.66;;;-1.89;99.54
28354;BME280;15603;50.878;8.036;2024-03-23T12:23:45;142882.66;;;-1.64;98.70
28354;BME280;15603;50.878;8.036;2024-03-23T12:26:12;142907.97;;;-1.53;100.00
28354;BME280;15603;50.878;8.036;2024-03-23T12:28:39;142971.78;;;-1.26;96.57
28354;BME280;15603;50.878;8.036;2024-03-23T12:31:05;142832.09;;;-1.86;98.48
28354;BME280;15603;50.878;8.036;2024-03-23T12:33:34;142882.66;;;-1.64;96.72
28354;BME280;15603;50.878;8.036;2024-03-23T12:36:00;142693.66;;;-2.45;98.94
28354;BME280;15603;50.878;8.036;2024-03-23T12:38:26;142579.34;;;-2.93;99.46
28354;BME280;15603;50.878;8.036;2024-03-23T12:40:53;142557.69;;;-3.03;100.00
28354;BME280;15603;50.878;8.036;2024-03-23T12:43:19;142570.94;;;-2.97;100.00
28354;BME280;15603;50.878;8.036;2024-03-23T12:45:49;142629.88;;;-2.72;100.00
28354;BME280;15603;50.878;8.036;2024-03-23T12:48:16;142521.59;;;-3.18;100.00
28354;BME280;15603;50.878;8.036;2024-03-23T12:50:42;142581.78;;;-2.92;100.00
28354;BME280;15603;50.878;8.036;2024-03-23T12:53:08;142578.16;;;-2.94;100.00
28354;BME280;15603;50.878;8.036;2024-03-23T12:55:36;142504.75;;;-3.25;100.00
28354;BME280;15603;50.878;8.036;2024-03-23T12:58:02;142466.31;;;-3.42;100.00
28354;BME280;15603;50.878;8.036;2024-03-23T13:00:29;142382.13;;;-3.78;100.00
28354;BME280;15603;50.878;8.036;2024-03-23T13:02:55;142323.22;;;-4.03;100.00
28354;BME280;15603;50.878;8.036;2024-03-23T13:05:21;142408.59;;;-3.66;100.00
28354;BME280;15603;50.878;8.036;2024-03-23T13:07:47;142451.88;;;-3.48;100.00
28354;BME280;15603;50.878;8.036;2024-03-23T13:10:13;142601.00;;;-2.84;100.00
28354;BME280;15603;50.878;8.036;2024-03-23T13:12:40;142692.44;;;-2.45;100.00
28354;BME280;15603;50.878;8.036;2024-03-23T13:15:09;142596.22;;;-2.86;100.00
28354;BME280;15603;50.878;8.036;2024-03-23T13:17:35;142543.28;;;-3.09;100.00
28354;BME280;15603;50.878;8.036;2024-03-23T13:20:01;142502.38;;;-3.26;100.00
28354;BME280;15603;50.878;8.036;2024-03-23T13:22:27;142391.75;;;-3.73;100.00
28354;BME280;15603;50.878;8.036;2024-03-23T13:24:54;142347.31;;;-3.92;100.00
28354;BME280;15603;50.878;8.036;2024-03-23T13:27:20;142331.66;;;-3.99;100.00
28354;BME280;15603;50.878;8.036;2024-03-23T13:29:46;142294.41;;;-4.15;100.00
28354;BME280;15603;50.878;8.036;2024-03-23T13:32:13;142412.19;;;-3.65;100.00
28354;BME280;15603;50.878;8.036;2024-03-23T13:34:39;142398.97;;;-3.70;100.00
28354;BME280;15603;50.878;8.036;2024-03-23T13:37:06;142471.13;;;-3.40;100.00
28354;BME280;15603;50.878;8.036;2024-03-23T13:39:33;142512.00;;;-3.22;100.00
28354;BME280;15603;50.878;8.036;2024-03-23T13:41:59;142423.00;;;-3.60;100.00
28354;BME280;15603;50.878;8.036;2024-03-23T13:44:25;142418.19;;;-3.62;100.00
28354;BME280;15603;50.878;8.036;2024-03-23T13:46:52;142376.13;;;-3.80;100.00
28354;BME280;15603;50.878;8.036;2024-03-23T13:49:28;142449.47;;;-3.49;100.00
28354;BME280;15603;50.878;8.036;2024-03-23T13:51:55;142475.91;;;-3.38;100.00
28354;BME280;15603;50.878;8.036;2024-03-23T13:54:24;142483.16;;;-3.34;100.00
28354;BME280;15603;50.878;8.036;2024-03-23T13:56:51;142531.22;;;-3.14;100.00
28354;BME280;15603;50.878;8.036;2024-03-23T13:59:17;142574.53;;;-2.96;100.00